This is the latest recevied weather packets stored in our database for station/object EA7RX-4. If no packets are shown the sender has not sent any weather packets the latest 10 day(s).
| Time | Temp. | Humidity | Pressure | Rain* | Wind** | Luminosity | Snow |
|---|---|---|---|---|---|---|---|
| 1787994603 | 20° C | 48% | 1021.1 hPa | 0 mm | - | 563 W/m² | - |
| 1787994003 | 19.44° C | 48% | 1021 hPa | 0 mm | - | 527 W/m² | - |
| 1787993403 | 18.89° C | 49% | 1020.9 hPa | 0 mm | - | 489 W/m² | - |
| 1787992803 | 18.33° C | 52% | 1020.6 hPa | 0 mm | - | 449 W/m² | - |
| 1787992203 | 17.22° C | 54% | 1020.7 hPa | 0 mm | - | 413 W/m² | - |
| 1787991603 | 17.22° C | 54% | 1020.7 hPa | 0 mm | - | 376 W/m² | - |
| 1787991003 | 17.22° C | 54% | 1020.5 hPa | 0 mm | - | 337 W/m² | - |
| 1787990403 | 17.22° C | 54% | 1020.5 hPa | 0 mm | - | 299 W/m² | - |
| 1787989803 | 20.56° C | 45% | 1020.5 hPa | 0 mm | - | 267 W/m² | - |
| 1787989203 | 20.56° C | 45% | 1020.3 hPa | 0 mm | - | 238 W/m² | - |
| 1787988603 | 18.89° C | 49% | 1020.2 hPa | 0 mm | - | 213 W/m² | - |
| 1787988003 | 18.33° C | 49% | 1020.3 hPa | 0 mm | - | 189 W/m² | - |
| 1787987403 | 17.78° C | 52% | 1019.9 hPa | 0 mm | - | 159 W/m² | - |
| 1787986803 | 17.22° C | 54% | 1020.3 hPa | 0 mm | - | 129 W/m² | - |
| 1787986203 | 16.67° C | 54% | 1020.1 hPa | 0 mm | - | 101 W/m² | - |
| 1787985603 | 16.67° C | 56% | 1020.2 hPa | 0 mm | - | 77 W/m² | - |
| 1787985003 | 16.11° C | 56% | 1020.1 hPa | 0 mm | - | 54 W/m² | - |
| 1787984403 | 15.56° C | 57% | 1020 hPa | 0 mm | - | 38 W/m² | - |
| 1787983803 | 15.56° C | 58% | 1019.9 hPa | 0 mm | - | 27 W/m² | - |
| 1787983203 | 15.56° C | 58% | 1019.9 hPa | 0 mm | - | 19 W/m² | - |
| 1787982603 | 15° C | 59% | 1019.8 hPa | 0 mm | - | 11 W/m² | - |
| 1787982003 | 15° C | 60% | 1019.5 hPa | 0 mm | - | 5 W/m² | - |
| 1787981403 | 15° C | 60% | 1019.5 hPa | 0 mm | - | 1 W/m² | - |
| 1787980803 | 15° C | 60% | 1019.8 hPa | 0 mm | - | 0 W/m² | - |
| 1787980203 | 15° C | 60% | 1019.7 hPa | 0 mm | - | 0 W/m² | - |
* Rain latest hour (hover to see other rain measurements)
** Current wind speed in m/s (hover to see current wind gust speed)